sensor_id;sensor_type;location;lat;lon;timestamp;P1;durP1;ratioP1;P2;durP2;ratioP2
68144;SDS011;55400;51.824;-0.196;2024-01-30T00:03:25;17.10;;;5.20;;
68144;SDS011;55400;51.824;-0.196;2024-01-30T00:07:24;9.80;;;4.30;;
68144;SDS011;55400;51.824;-0.196;2024-01-30T00:11:24;20.70;;;5.00;;
68144;SDS011;55400;51.824;-0.196;2024-01-30T00:15:25;14.80;;;4.50;;
68144;SDS011;55400;51.824;-0.196;2024-01-30T00:23:25;15.80;;;5.20;;
68144;SDS011;55400;51.824;-0.196;2024-01-30T00:27:25;10.40;;;4.30;;
68144;SDS011;55400;51.824;-0.196;2024-01-30T00:31:24;12.00;;;4.50;;
68144;SDS011;55400;51.824;-0.196;2024-01-30T00:35:25;12.30;;;4.60;;
68144;SDS011;55400;51.824;-0.196;2024-01-30T00:39:25;12.20;;;4.10;;
68144;SDS011;55400;51.824;-0.196;2024-01-30T00:43:25;7.60;;;3.80;;
68144;SDS011;55400;51.824;-0.196;2024-01-30T00:46:50;7.60;;;3.80;;
68144;SDS011;55400;51.824;-0.196;2024-01-30T00:47:25;10.40;;;3.90;;
68144;SDS011;55400;51.824;-0.196;2024-01-30T00:56:51;6.90;;;3.80;;
68144;SDS011;55400;51.824;-0.196;2024-01-30T01:03:25;11.60;;;3.20;;
68144;SDS011;55400;51.824;-0.196;2024-01-30T01:07:25;7.10;;;3.00;;
68144;SDS011;55400;51.824;-0.196;2024-01-30T01:11:25;7.60;;;3.00;;
68144;SDS011;55400;51.824;-0.196;2024-01-30T01:15:31;6.60;;;2.70;;
68144;SDS011;55400;51.824;-0.196;2024-01-30T01:23:25;4.70;;;2.50;;
68144;SDS011;55400;51.824;-0.196;2024-01-30T01:27:25;7.70;;;2.20;;
68144;SDS011;55400;51.824;-0.196;2024-01-30T01:31:25;2.40;;;1.50;;
68144;SDS011;55400;51.824;-0.196;2024-01-30T01:35:25;3.20;;;1.50;;
68144;SDS011;55400;51.824;-0.196;2024-01-30T01:39:25;4.70;;;1.70;;
68144;SDS011;55400;51.824;-0.196;2024-01-30T01:47:25;5.20;;;1.40;;
68144;SDS011;55400;51.824;-0.196;2024-01-30T01:48:27;5.20;;;1.40;;
68144;SDS011;55400;51.824;-0.196;2024-01-30T01:51:27;2.70;;;1.20;;
68144;SDS011;55400;51.824;-0.196;2024-01-30T01:55:25;1.50;;;0.90;;
68144;SDS011;55400;51.824;-0.196;2024-01-30T01:59:25;1.60;;;0.90;;
68144;SDS011;55400;51.824;-0.196;2024-01-30T02:03:25;2.60;;;0.90;;
68144;SDS011;55400;51.824;-0.196;2024-01-30T02:07:25;4.90;;;1.20;;
68144;SDS011;55400;51.824;-0.196;2024-01-30T02:15:25;1.90;;;0.80;;
68144;SDS011;55400;51.824;-0.196;2024-01-30T02:19:25;4.10;;;1.20;;
68144;SDS011;55400;51.824;-0.196;2024-01-30T02:23:25;2.40;;;0.80;;
68144;SDS011;55400;51.824;-0.196;2024-01-30T02:27:25;2.90;;;1.00;;
68144;SDS011;55400;51.824;-0.196;2024-01-30T02:31:25;2.80;;;0.60;;
68144;SDS011;55400;51.824;-0.196;2024-01-30T02:35:25;1.20;;;0.50;;
68144;SDS011;55400;51.824;-0.196;2024-01-30T02:41:40;1.70;;;0.50;;
68144;SDS011;55400;51.824;-0.196;2024-01-30T02:43:25;2.70;;;0.60;;
68144;SDS011;55400;51.824;-0.196;2024-01-30T02:47:25;1.50;;;0.70;;
68144;SDS011;55400;51.824;-0.196;2024-01-30T02:51:25;1.70;;;0.50;;
68144;SDS011;55400;51.824;-0.196;2024-01-30T02:55:25;2.50;;;0.50;;
68144;SDS011;55400;51.824;-0.196;2024-01-30T02:59:25;1.20;;;0.70;;
68144;SDS011;55400;51.824;-0.196;2024-01-30T03:05:08;2.40;;;0.60;;
68144;SDS011;55400;51.824;-0.196;2024-01-30T03:07:25;2.30;;;0.70;;
68144;SDS011;55400;51.824;-0.196;2024-01-30T03:12:37;1.50;;;0.50;;
68144;SDS011;55400;51.824;-0.196;2024-01-30T03:15:25;1.40;;;0.50;;
68144;SDS011;55400;51.824;-0.196;2024-01-30T03:19:25;2.60;;;0.70;;
68144;SDS011;55400;51.824;-0.196;2024-01-30T03:23:25;1.00;;;0.40;;
68144;SDS011;55400;51.824;-0.196;2024-01-30T03:27:25;2.90;;;0.60;;
68144;SDS011;55400;51.824;-0.196;2024-01-30T03:31:25;2.60;;;0.50;;
68144;SDS011;55400;51.824;-0.196;2024-01-30T03:35:25;3.40;;;0.70;;
68144;SDS011;55400;51.824;-0.196;2024-01-30T03:39:25;1.50;;;0.60;;
68144;SDS011;55400;51.824;-0.196;2024-01-30T03:43:25;1.30;;;0.50;;
68144;SDS011;55400;51.824;-0.196;2024-01-30T03:47:25;0.50;;;0.40;;
68144;SDS011;55400;51.824;-0.196;2024-01-30T03:51:25;1.50;;;0.50;;
68144;SDS011;55400;51.824;-0.196;2024-01-30T03:55:25;1.40;;;0.40;;
68144;SDS011;55400;51.824;-0.196;2024-01-30T03:59:25;2.30;;;0.60;;
68144;SDS011;55400;51.824;-0.196;2024-01-30T04:03:25;0.90;;;0.40;;
68144;SDS011;55400;51.824;-0.196;2024-01-30T04:11:25;1.10;;;0.50;;
68144;SDS011;55400;51.824;-0.196;2024-01-30T04:15:25;1.00;;;0.50;;
68144;SDS011;55400;51.824;-0.196;2024-01-30T04:19:25;3.00;;;0.60;;
68144;SDS011;55400;51.824;-0.196;2024-01-30T04:23:25;1.10;;;0.50;;
68144;SDS011;55400;51.824;-0.196;2024-01-30T04:27:25;1.80;;;0.50;;
68144;SDS011;55400;51.824;-0.196;2024-01-30T04:31:25;0.70;;;0.40;;
68144;SDS011;55400;51.824;-0.196;2024-01-30T04:35:25;0.90;;;0.50;;
68144;SDS011;55400;51.824;-0.196;2024-01-30T04:39:25;1.50;;;0.60;;
68144;SDS011;55400;51.824;-0.196;2024-01-30T04:44:09;0.50;;;0.40;;
68144;SDS011;55400;51.824;-0.196;2024-01-30T04:47:25;2.40;;;0.80;;
68144;SDS011;55400;51.824;-0.196;2024-01-30T04:51:25;0.90;;;0.30;;
68144;SDS011;55400;51.824;-0.196;2024-01-30T04:55:25;0.60;;;0.40;;
68144;SDS011;55400;51.824;-0.196;2024-01-30T05:01:03;0.80;;;0.40;;
68144;SDS011;55400;51.824;-0.196;2024-01-30T05:03:32;1.10;;;0.40;;
68144;SDS011;55400;51.824;-0.196;2024-01-30T05:07:25;0.80;;;0.50;;
68144;SDS011;55400;51.824;-0.196;2024-01-30T05:11:25;0.80;;;0.50;;
68144;SDS011;55400;51.824;-0.196;2024-01-30T05:15:25;0.70;;;0.50;;
68144;SDS011;55400;51.824;-0.196;2024-01-30T05:19:25;0.50;;;0.50;;
68144;SDS011;55400;51.824;-0.196;2024-01-30T05:23:25;0.50;;;0.40;;
68144;SDS011;55400;51.824;-0.196;2024-01-30T05:27:33;1.10;;;0.50;;
68144;SDS011;55400;51.824;-0.196;2024-01-30T05:31:25;0.40;;;0.40;;
68144;SDS011;55400;51.824;-0.196;2024-01-30T05:35:25;1.20;;;0.60;;
68144;SDS011;55400;51.824;-0.196;2024-01-30T05:39:25;1.40;;;0.60;;
68144;SDS011;55400;51.824;-0.196;2024-01-30T05:43:54;0.70;;;0.50;;
68144;SDS011;55400;51.824;-0.196;2024-01-30T05:47:25;0.70;;;0.50;;
68144;SDS011;55400;51.824;-0.196;2024-01-30T05:51:25;2.00;;;0.50;;
68144;SDS011;55400;51.824;-0.196;2024-01-30T05:55:25;1.20;;;0.60;;
68144;SDS011;55400;51.824;-0.196;2024-01-30T05:59:25;0.50;;;0.40;;
68144;SDS011;55400;51.824;-0.196;2024-01-30T06:03:25;0.80;;;0.60;;
68144;SDS011;55400;51.824;-0.196;2024-01-30T06:07:25;0.80;;;0.50;;
68144;SDS011;55400;51.824;-0.196;2024-01-30T06:11:26;1.00;;;0.90;;
68144;SDS011;55400;51.824;-0.196;2024-01-30T06:15:25;1.00;;;0.90;;
68144;SDS011;55400;51.824;-0.196;2024-01-30T06:19:26;2.00;;;1.20;;
68144;SDS011;55400;51.824;-0.196;2024-01-30T06:23:25;0.90;;;0.90;;
68144;SDS011;55400;51.824;-0.196;2024-01-30T06:27:26;1.40;;;1.30;;
68144;SDS011;55400;51.824;-0.196;2024-01-30T06:31:25;2.00;;;1.40;;
68144;SDS011;55400;51.824;-0.196;2024-01-30T06:35:26;2.30;;;1.50;;
68144;SDS011;55400;51.824;-0.196;2024-01-30T06:39:26;2.80;;;1.90;;
68144;SDS011;55400;51.824;-0.196;2024-01-30T06:43:26;2.50;;;1.80;;
68144;SDS011;55400;51.824;-0.196;2024-01-30T06:47:26;1.80;;;1.70;;
68144;SDS011;55400;51.824;-0.196;2024-01-30T06:51:26;3.30;;;2.00;;
68144;SDS011;55400;51.824;-0.196;2024-01-30T06:55:26;2.40;;;1.90;;
68144;SDS011;55400;51.824;-0.196;2024-01-30T06:59:26;1.70;;;1.50;;
68144;SDS011;55400;51.824;-0.196;2024-01-30T07:03:26;1.20;;;1.10;;
68144;SDS011;55400;51.824;-0.196;2024-01-30T07:07:26;1.10;;;1.00;;
68144;SDS011;55400;51.824;-0.196;2024-01-30T07:11:26;1.10;;;1.00;;
68144;SDS011;55400;51.824;-0.196;2024-01-30T07:15:26;2.50;;;1.10;;
68144;SDS011;55400;51.824;-0.196;2024-01-30T07:19:26;2.30;;;0.90;;
68144;SDS011;55400;51.824;-0.196;2024-01-30T07:23:26;1.70;;;1.20;;
68144;SDS011;55400;51.824;-0.196;2024-01-30T07:27:26;2.20;;;0.80;;
68144;SDS011;55400;51.824;-0.196;2024-01-30T07:31:26;1.00;;;0.80;;
68144;SDS011;55400;51.824;-0.196;2024-01-30T07:35:26;1.70;;;0.70;;
68144;SDS011;55400;51.824;-0.196;2024-01-30T07:39:26;1.30;;;0.80;;
68144;SDS011;55400;51.824;-0.196;2024-01-30T07:43:26;0.90;;;0.70;;
68144;SDS011;55400;51.824;-0.196;2024-01-30T07:47:26;2.30;;;0.90;;
68144;SDS011;55400;51.824;-0.196;2024-01-30T07:51:26;1.10;;;0.70;;
68144;SDS011;55400;51.824;-0.196;2024-01-30T07:55:26;1.50;;;1.30;;
68144;SDS011;55400;51.824;-0.196;2024-01-30T07:59:26;1.60;;;0.80;;
68144;SDS011;55400;51.824;-0.196;2024-01-30T08:03:26;1.00;;;0.70;;
68144;SDS011;55400;51.824;-0.196;2024-01-30T08:07:26;1.20;;;1.00;;
68144;SDS011;55400;51.824;-0.196;2024-01-30T08:11:26;0.90;;;0.70;;
68144;SDS011;55400;51.824;-0.196;2024-01-30T08:15:26;0.80;;;0.70;;
68144;SDS011;55400;51.824;-0.196;2024-01-30T08:19:26;0.70;;;0.60;;
68144;SDS011;55400;51.824;-0.196;2024-01-30T08:27:26;5.80;;;3.10;;
68144;SDS011;55400;51.824;-0.196;2024-01-30T08:35:28;1.10;;;1.00;;
68144;SDS011;55400;51.824;-0.196;2024-01-30T08:39:26;1.90;;;0.90;;
68144;SDS011;55400;51.824;-0.196;2024-01-30T08:43:26;1.00;;;0.70;;
68144;SDS011;55400;51.824;-0.196;2024-01-30T08:47:26;1.00;;;0.90;;
68144;SDS011;55400;51.824;-0.196;2024-01-30T08:51:26;0.90;;;0.90;;
68144;SDS011;55400;51.824;-0.196;2024-01-30T08:55:26;1.30;;;0.90;;
68144;SDS011;55400;51.824;-0.196;2024-01-30T08:59:26;2.50;;;1.00;;
68144;SDS011;55400;51.824;-0.196;2024-01-30T09:07:26;2.00;;;1.70;;
68144;SDS011;55400;51.824;-0.196;2024-01-30T09:11:26;0.80;;;0.80;;
68144;SDS011;55400;51.824;-0.196;2024-01-30T09:15:26;2.60;;;1.60;;
68144;SDS011;55400;51.824;-0.196;2024-01-30T09:19:26;1.10;;;0.70;;
68144;SDS011;55400;51.824;-0.196;2024-01-30T09:27:26;0.80;;;0.80;;
68144;SDS011;55400;51.824;-0.196;2024-01-30T09:31:26;0.90;;;0.90;;
68144;SDS011;55400;51.824;-0.196;2024-01-30T09:35:26;0.90;;;0.80;;
68144;SDS011;55400;51.824;-0.196;2024-01-30T09:39:26;1.30;;;1.20;;
68144;SDS011;55400;51.824;-0.196;2024-01-30T09:43:31;1.10;;;0.90;;
68144;SDS011;55400;51.824;-0.196;2024-01-30T09:47:26;0.90;;;0.70;;
68144;SDS011;55400;51.824;-0.196;2024-01-30T09:51:26;1.00;;;0.90;;
68144;SDS011;55400;51.824;-0.196;2024-01-30T09:55:26;0.90;;;0.90;;
68144;SDS011;55400;51.824;-0.196;2024-01-30T09:59:26;0.60;;;0.60;;
68144;SDS011;55400;51.824;-0.196;2024-01-30T10:03:26;1.20;;;0.70;;
68144;SDS011;55400;51.824;-0.196;2024-01-30T10:07:26;1.20;;;0.80;;
68144;SDS011;55400;51.824;-0.196;2024-01-30T10:15:28;0.70;;;0.70;;
68144;SDS011;55400;51.824;-0.196;2024-01-30T10:19:26;3.10;;;0.80;;
68144;SDS011;55400;51.824;-0.196;2024-01-30T10:23:26;0.70;;;0.70;;
68144;SDS011;55400;51.824;-0.196;2024-01-30T10:27:27;1.30;;;0.60;;
68144;SDS011;55400;51.824;-0.196;2024-01-30T10:31:26;0.80;;;0.60;;
68144;SDS011;55400;51.824;-0.196;2024-01-30T10:35:26;0.80;;;0.80;;
68144;SDS011;55400;51.824;-0.196;2024-01-30T10:39:29;0.50;;;0.50;;
68144;SDS011;55400;51.824;-0.196;2024-01-30T10:43:31;0.80;;;0.60;;
68144;SDS011;55400;51.824;-0.196;2024-01-30T10:47:28;0.70;;;0.70;;
68144;SDS011;55400;51.824;-0.196;2024-01-30T10:51:27;1.20;;;0.60;;
68144;SDS011;55400;51.824;-0.196;2024-01-30T10:55:28;1.10;;;0.80;;
68144;SDS011;55400;51.824;-0.196;2024-01-30T10:59:26;1.80;;;0.80;;
68144;SDS011;55400;51.824;-0.196;2024-01-30T11:03:27;1.10;;;0.80;;
68144;SDS011;55400;51.824;-0.196;2024-01-30T11:11:26;0.30;;;0.30;;
68144;SDS011;55400;51.824;-0.196;2024-01-30T11:15:28;1.00;;;0.60;;
68144;SDS011;55400;51.824;-0.196;2024-01-30T11:19:27;1.20;;;0.80;;
68144;SDS011;55400;51.824;-0.196;2024-01-30T11:23:27;1.50;;;0.80;;
68144;SDS011;55400;51.824;-0.196;2024-01-30T11:27:26;0.60;;;0.50;;
68144;SDS011;55400;51.824;-0.196;2024-01-30T11:35:27;0.60;;;0.60;;
68144;SDS011;55400;51.824;-0.196;2024-01-30T11:39:27;1.00;;;0.90;;
68144;SDS011;55400;51.824;-0.196;2024-01-30T11:43:26;1.70;;;0.80;;
68144;SDS011;55400;51.824;-0.196;2024-01-30T11:47:27;0.80;;;0.60;;
68144;SDS011;55400;51.824;-0.196;2024-01-30T11:51:26;2.00;;;0.90;;
68144;SDS011;55400;51.824;-0.196;2024-01-30T11:55:28;2.70;;;0.60;;
68144;SDS011;55400;51.824;-0.196;2024-01-30T11:59:26;0.70;;;0.70;;
68144;SDS011;55400;51.824;-0.196;2024-01-30T12:03:26;1.80;;;0.90;;
68144;SDS011;55400;51.824;-0.196;2024-01-30T12:11:27;0.70;;;0.70;;
68144;SDS011;55400;51.824;-0.196;2024-01-30T12:15:27;1.30;;;0.90;;
68144;SDS011;55400;51.824;-0.196;2024-01-30T12:19:27;2.30;;;1.00;;
68144;SDS011;55400;51.824;-0.196;2024-01-30T12:25:24;0.70;;;0.70;;
68144;SDS011;55400;51.824;-0.196;2024-01-30T12:27:27;0.70;;;0.70;;
68144;SDS011;55400;51.824;-0.196;2024-01-30T12:31:27;1.10;;;0.70;;
68144;SDS011;55400;51.824;-0.196;2024-01-30T12:36:48;1.20;;;1.00;;
68144;SDS011;55400;51.824;-0.196;2024-01-30T12:39:27;1.20;;;1.00;;
68144;SDS011;55400;51.824;-0.196;2024-01-30T12:43:27;1.20;;;0.90;;
68144;SDS011;55400;51.824;-0.196;2024-01-30T12:47:27;0.90;;;0.90;;
68144;SDS011;55400;51.824;-0.196;2024-01-30T12:51:27;1.70;;;0.80;;
68144;SDS011;55400;51.824;-0.196;2024-01-30T12:55:27;3.40;;;1.00;;
68144;SDS011;55400;51.824;-0.196;2024-01-30T12:59:27;2.50;;;0.90;;
68144;SDS011;55400;51.824;-0.196;2024-01-30T13:03:27;1.30;;;0.80;;
68144;SDS011;55400;51.824;-0.196;2024-01-30T13:07:27;0.90;;;0.90;;
68144;SDS011;55400;51.824;-0.196;2024-01-30T13:11:27;0.70;;;0.70;;
68144;SDS011;55400;51.824;-0.196;2024-01-30T13:15:27;1.00;;;0.90;;
68144;SDS011;55400;51.824;-0.196;2024-01-30T13:27:27;0.80;;;0.60;;
68144;SDS011;55400;51.824;-0.196;2024-01-30T13:31:27;1.30;;;0.80;;
68144;SDS011;55400;51.824;-0.196;2024-01-30T13:35:27;0.70;;;0.70;;
68144;SDS011;55400;51.824;-0.196;2024-01-30T13:39:27;3.10;;;0.90;;
68144;SDS011;55400;51.824;-0.196;2024-01-30T13:43:27;1.10;;;1.00;;
68144;SDS011;55400;51.824;-0.196;2024-01-30T13:47:27;1.80;;;1.00;;
68144;SDS011;55400;51.824;-0.196;2024-01-30T13:51:27;2.30;;;1.10;;
68144;SDS011;55400;51.824;-0.196;2024-01-30T13:55:27;1.00;;;0.90;;
68144;SDS011;55400;51.824;-0.196;2024-01-30T13:59:27;1.00;;;0.80;;
68144;SDS011;55400;51.824;-0.196;2024-01-30T14:03:27;1.80;;;1.00;;
68144;SDS011;55400;51.824;-0.196;2024-01-30T14:07:27;1.20;;;0.90;;
68144;SDS011;55400;51.824;-0.196;2024-01-30T14:15:27;1.80;;;0.90;;
68144;SDS011;55400;51.824;-0.196;2024-01-30T14:19:27;2.30;;;1.00;;
68144;SDS011;55400;51.824;-0.196;2024-01-30T14:23:27;1.30;;;1.10;;
68144;SDS011;55400;51.824;-0.196;2024-01-30T14:27:27;1.90;;;1.20;;
68144;SDS011;55400;51.824;-0.196;2024-01-30T14:31:27;1.40;;;1.10;;
68144;SDS011;55400;51.824;-0.196;2024-01-30T14:35:27;1.50;;;1.10;;
68144;SDS011;55400;51.824;-0.196;2024-01-30T14:39:27;1.30;;;0.90;;
68144;SDS011;55400;51.824;-0.196;2024-01-30T14:43:27;3.00;;;1.20;;
68144;SDS011;55400;51.824;-0.196;2024-01-30T14:47:27;1.80;;;1.00;;
68144;SDS011;55400;51.824;-0.196;2024-01-30T14:51:27;1.40;;;1.20;;
68144;SDS011;55400;51.824;-0.196;2024-01-30T14:55:27;1.90;;;1.50;;
68144;SDS011;55400;51.824;-0.196;2024-01-30T15:07:27;3.00;;;1.50;;
68144;SDS011;55400;51.824;-0.196;2024-01-30T15:11:27;1.60;;;1.40;;
68144;SDS011;55400;51.824;-0.196;2024-01-30T15:15:45;1.90;;;1.40;;
68144;SDS011;55400;51.824;-0.196;2024-01-30T15:19:27;2.10;;;1.50;;
68144;SDS011;55400;51.824;-0.196;2024-01-30T15:23:27;1.90;;;1.60;;
68144;SDS011;55400;51.824;-0.196;2024-01-30T15:27:27;1.80;;;1.60;;
68144;SDS011;55400;51.824;-0.196;2024-01-30T15:35:27;3.20;;;1.80;;
68144;SDS011;55400;51.824;-0.196;2024-01-30T15:39:27;3.10;;;1.70;;
68144;SDS011;55400;51.824;-0.196;2024-01-30T15:43:27;1.50;;;1.40;;
68144;SDS011;55400;51.824;-0.196;2024-01-30T15:47:27;1.60;;;1.50;;
68144;SDS011;55400;51.824;-0.196;2024-01-30T15:51:27;1.80;;;1.50;;
68144;SDS011;55400;51.824;-0.196;2024-01-30T15:59:27;3.50;;;1.30;;
68144;SDS011;55400;51.824;-0.196;2024-01-30T16:03:27;2.30;;;1.70;;
68144;SDS011;55400;51.824;-0.196;2024-01-30T16:07:27;2.90;;;1.60;;
68144;SDS011;55400;51.824;-0.196;2024-01-30T16:11:27;1.70;;;1.40;;
68144;SDS011;55400;51.824;-0.196;2024-01-30T16:15:27;1.60;;;1.50;;
68144;SDS011;55400;51.824;-0.196;2024-01-30T16:19:27;2.60;;;1.80;;
68144;SDS011;55400;51.824;-0.196;2024-01-30T16:23:28;2.50;;;1.50;;
68144;SDS011;55400;51.824;-0.196;2024-01-30T16:27:27;2.30;;;1.60;;
68144;SDS011;55400;51.824;-0.196;2024-01-30T16:31:27;1.70;;;1.60;;
68144;SDS011;55400;51.824;-0.196;2024-01-30T16:35:27;3.90;;;1.90;;
68144;SDS011;55400;51.824;-0.196;2024-01-30T16:43:27;2.60;;;2.20;;
68144;SDS011;55400;51.824;-0.196;2024-01-30T16:47:27;2.50;;;2.00;;
68144;SDS011;55400;51.824;-0.196;2024-01-30T16:55:27;2.60;;;2.00;;
68144;SDS011;55400;51.824;-0.196;2024-01-30T17:03:28;3.10;;;1.90;;
68144;SDS011;55400;51.824;-0.196;2024-01-30T17:07:27;3.80;;;2.10;;
68144;SDS011;55400;51.824;-0.196;2024-01-30T17:11:27;2.90;;;2.00;;
68144;SDS011;55400;51.824;-0.196;2024-01-30T17:15:27;2.80;;;2.20;;
68144;SDS011;55400;51.824;-0.196;2024-01-30T17:19:27;3.50;;;1.90;;
68144;SDS011;55400;51.824;-0.196;2024-01-30T17:23:27;5.30;;;2.00;;
68144;SDS011;55400;51.824;-0.196;2024-01-30T17:27:27;2.00;;;1.80;;
68144;SDS011;55400;51.824;-0.196;2024-01-30T17:31:27;2.10;;;1.90;;
68144;SDS011;55400;51.824;-0.196;2024-01-30T17:35:27;7.00;;;1.90;;
68144;SDS011;55400;51.824;-0.196;2024-01-30T17:39:27;3.20;;;1.80;;
68144;SDS011;55400;51.824;-0.196;2024-01-30T17:47:27;1.80;;;1.70;;
68144;SDS011;55400;51.824;-0.196;2024-01-30T17:51:28;2.40;;;1.50;;
68144;SDS011;55400;51.824;-0.196;2024-01-30T17:55:27;2.50;;;1.80;;
68144;SDS011;55400;51.824;-0.196;2024-01-30T18:03:28;3.40;;;1.90;;
68144;SDS011;55400;51.824;-0.196;2024-01-30T18:07:27;1.90;;;1.70;;
68144;SDS011;55400;51.824;-0.196;2024-01-30T18:11:27;3.70;;;2.20;;
68144;SDS011;55400;51.824;-0.196;2024-01-30T18:19:27;3.20;;;2.10;;
68144;SDS011;55400;51.824;-0.196;2024-01-30T18:23:27;3.00;;;2.30;;
68144;SDS011;55400;51.824;-0.196;2024-01-30T18:27:28;3.80;;;2.30;;
68144;SDS011;55400;51.824;-0.196;2024-01-30T18:35:28;4.20;;;2.50;;
68144;SDS011;55400;51.824;-0.196;2024-01-30T18:39:28;3.60;;;2.40;;
68144;SDS011;55400;51.824;-0.196;2024-01-30T18:47:28;2.90;;;2.10;;
68144;SDS011;55400;51.824;-0.196;2024-01-30T18:51:28;3.90;;;2.50;;
68144;SDS011;55400;51.824;-0.196;2024-01-30T18:55:28;3.20;;;2.30;;
68144;SDS011;55400;51.824;-0.196;2024-01-30T18:59:28;2.90;;;2.40;;
68144;SDS011;55400;51.824;-0.196;2024-01-30T19:03:28;2.90;;;2.30;;
68144;SDS011;55400;51.824;-0.196;2024-01-30T19:07:28;2.10;;;1.80;;
68144;SDS011;55400;51.824;-0.196;2024-01-30T19:11:28;1.50;;;1.40;;
68144;SDS011;55400;51.824;-0.196;2024-01-30T19:15:28;1.10;;;1.00;;
68144;SDS011;55400;51.824;-0.196;2024-01-30T19:19:28;1.70;;;1.20;;
68144;SDS011;55400;51.824;-0.196;2024-01-30T19:23:28;1.40;;;1.20;;
68144;SDS011;55400;51.824;-0.196;2024-01-30T19:27:28;3.30;;;1.50;;
68144;SDS011;55400;51.824;-0.196;2024-01-30T19:31:28;1.90;;;1.50;;
68144;SDS011;55400;51.824;-0.196;2024-01-30T19:35:28;1.70;;;1.10;;
68144;SDS011;55400;51.824;-0.196;2024-01-30T19:39:28;1.10;;;1.00;;
68144;SDS011;55400;51.824;-0.196;2024-01-30T19:43:28;1.70;;;1.20;;
68144;SDS011;55400;51.824;-0.196;2024-01-30T19:47:28;1.30;;;1.20;;
68144;SDS011;55400;51.824;-0.196;2024-01-30T19:51:34;2.50;;;1.60;;
68144;SDS011;55400;51.824;-0.196;2024-01-30T19:59:28;1.60;;;1.50;;
68144;SDS011;55400;51.824;-0.196;2024-01-30T20:03:28;2.00;;;1.80;;
68144;SDS011;55400;51.824;-0.196;2024-01-30T20:07:28;3.50;;;1.70;;
68144;SDS011;55400;51.824;-0.196;2024-01-30T20:11:28;1.90;;;1.70;;
68144;SDS011;55400;51.824;-0.196;2024-01-30T20:15:28;3.70;;;2.20;;
68144;SDS011;55400;51.824;-0.196;2024-01-30T20:19:28;2.40;;;1.70;;
68144;SDS011;55400;51.824;-0.196;2024-01-30T20:23:28;2.80;;;1.90;;
68144;SDS011;55400;51.824;-0.196;2024-01-30T20:31:28;3.90;;;1.90;;
68144;SDS011;55400;51.824;-0.196;2024-01-30T20:35:28;3.70;;;1.80;;
68144;SDS011;55400;51.824;-0.196;2024-01-30T20:39:28;2.80;;;1.90;;
68144;SDS011;55400;51.824;-0.196;2024-01-30T20:51:28;2.40;;;2.00;;
68144;SDS011;55400;51.824;-0.196;2024-01-30T20:55:28;2.50;;;2.20;;
68144;SDS011;55400;51.824;-0.196;2024-01-30T20:59:28;2.80;;;2.30;;
68144;SDS011;55400;51.824;-0.196;2024-01-30T21:03:28;3.00;;;2.10;;
68144;SDS011;55400;51.824;-0.196;2024-01-30T21:07:28;2.90;;;2.10;;
68144;SDS011;55400;51.824;-0.196;2024-01-30T21:11:28;4.80;;;2.30;;
68144;SDS011;55400;51.824;-0.196;2024-01-30T21:15:28;5.60;;;2.60;;
68144;SDS011;55400;51.824;-0.196;2024-01-30T21:19:28;2.80;;;1.90;;
68144;SDS011;55400;51.824;-0.196;2024-01-30T21:23:28;3.40;;;2.20;;
68144;SDS011;55400;51.824;-0.196;2024-01-30T21:27:28;3.50;;;2.30;;
68144;SDS011;55400;51.824;-0.196;2024-01-30T21:31:28;4.20;;;2.90;;
68144;SDS011;55400;51.824;-0.196;2024-01-30T21:35:28;4.50;;;2.90;;
68144;SDS011;55400;51.824;-0.196;2024-01-30T21:43:28;3.60;;;2.80;;
68144;SDS011;55400;51.824;-0.196;2024-01-30T21:47:28;3.00;;;2.60;;
68144;SDS011;55400;51.824;-0.196;2024-01-30T21:51:28;2.60;;;2.40;;
68144;SDS011;55400;51.824;-0.196;2024-01-30T21:55:28;3.90;;;2.60;;
68144;SDS011;55400;51.824;-0.196;2024-01-30T21:59:28;2.80;;;2.30;;
68144;SDS011;55400;51.824;-0.196;2024-01-30T22:03:29;4.60;;;2.40;;
68144;SDS011;55400;51.824;-0.196;2024-01-30T22:07:29;2.40;;;2.20;;
68144;SDS011;55400;51.824;-0.196;2024-01-30T22:11:28;2.60;;;2.20;;
68144;SDS011;55400;51.824;-0.196;2024-01-30T22:15:28;2.90;;;2.10;;
68144;SDS011;55400;51.824;-0.196;2024-01-30T22:19:28;2.60;;;2.10;;
68144;SDS011;55400;51.824;-0.196;2024-01-30T22:23:29;2.40;;;2.20;;
68144;SDS011;55400;51.824;-0.196;2024-01-30T22:27:28;2.10;;;1.70;;
68144;SDS011;55400;51.824;-0.196;2024-01-30T22:31:28;2.20;;;1.90;;
68144;SDS011;55400;51.824;-0.196;2024-01-30T22:35:28;3.00;;;2.00;;
68144;SDS011;55400;51.824;-0.196;2024-01-30T22:39:28;3.10;;;2.00;;
68144;SDS011;55400;51.824;-0.196;2024-01-30T22:43:28;3.10;;;2.00;;
68144;SDS011;55400;51.824;-0.196;2024-01-30T22:47:28;4.10;;;2.10;;
68144;SDS011;55400;51.824;-0.196;2024-01-30T22:51:28;2.90;;;1.90;;
68144;SDS011;55400;51.824;-0.196;2024-01-30T22:55:28;2.60;;;1.80;;
68144;SDS011;55400;51.824;-0.196;2024-01-30T22:59:28;1.80;;;1.70;;
68144;SDS011;55400;51.824;-0.196;2024-01-30T23:03:28;2.20;;;1.70;;
68144;SDS011;55400;51.824;-0.196;2024-01-30T23:11:28;2.60;;;1.60;;
68144;SDS011;55400;51.824;-0.196;2024-01-30T23:15:29;2.70;;;1.70;;
68144;SDS011;55400;51.824;-0.196;2024-01-30T23:19:28;2.00;;;1.30;;
68144;SDS011;55400;51.824;-0.196;2024-01-30T23:23:28;2.30;;;1.80;;
68144;SDS011;55400;51.824;-0.196;2024-01-30T23:27:28;3.50;;;2.00;;
68144;SDS011;55400;51.824;-0.196;2024-01-30T23:31:28;1.70;;;1.60;;
68144;SDS011;55400;51.824;-0.196;2024-01-30T23:39:31;1.70;;;1.60;;
68144;SDS011;55400;51.824;-0.196;2024-01-30T23:43:28;2.90;;;1.50;;
68144;SDS011;55400;51.824;-0.196;2024-01-30T23:47:28;2.10;;;1.40;;
68144;SDS011;55400;51.824;-0.196;2024-01-30T23:51:28;3.40;;;1.70;;
68144;SDS011;55400;51.824;-0.196;2024-01-30T23:55:28;1.60;;;1.50;;
68144;SDS011;55400;51.824;-0.196;2024-01-30T23:59:28;1.60;;;1.40;;
